Terminal Aerodrome Forecast
Issued by NWS

Home | Current Version | Previous Version | Text Only | Print | Product List | Glossary Off
Versions: 1 2 3 4 5 6 7 8 9 10 11 12 13 14 15 16 17 18 19 20 21

000
FTUS43 KBIS 242300
TAFDIK
TAF
KDIK 242331Z 2500/2524 25020G28KT P6SM -SHRA SCT025 OVC035
     FM250200 27016G24KT P6SM VCSH SCT015 OVC025
     FM250500 27018KT P6SM BKN009 OVC015
     FM251600 29015KT P6SM BKN020
     FM252100 31012KT P6SM SCT020 BKN040=

USA.gov is the U.S. government's official web portal to all federal, state and local government web resources and services.